Jeffersonville, IN

8:53 AM EDT on April 29, 2017 (GMT -0400)
Mallard Run | | Change Station
Active Advisory: Flash Flood Watch Active Notice: Flash Flood Watch

Elev 528 ft 38.33 °N, 85.72 °W | Updated 6 seconds ago

Rain
Rain
65.3 °F
Feels Like 65.3 °F
N
0.0
Wind Variable Wind from North
Gusts 0.0 mph

Today
High -- | Low -- °F
--% Chance of Precip.
Yesterday
High -- | Low -- °F
Precip. -- in
Pressure 29.98 in
Visibility 10.0 miles
Clouds Few 1700 ft
Mostly Cloudy 2200 ft
Overcast 5500 ft
Dew Point 65 °F
Humidity 98%
Rainfall 2.83 in
Snow Depth Not available.
6:48 AM 8:32 PM
Waxing Crescent, 13% visible
SPECI KSDF 291210Z 30019G29KT 10SM FEW017 BKN022 OVC055 22/18 A2998 RMK AO2 PK WND 34029/1208 LTG DSNT W-NE T02220178
Pressure 29.98 in
Visibility 10.0 miles
Clouds Few 1700 ft
Mostly Cloudy 2200 ft
Overcast 5500 ft
Dew Point 65 °F
Humidity 98%
Rainfall 2.83 in
Snow Depth Not available.
6:48 AM 8:32 PM
Waxing Crescent, 13% visible
SPECI KSDF 291210Z 30019G29KT 10SM FEW017 BKN022 OVC055 22/18 A2998 RMK AO2 PK WND 34029/1208 LTG DSNT W-NE T02220178

Get Your Daily Forecast Email!

Thanks for signing up!

Be on the lookout for a verification email in your inbox.

You'll start receiving severe weather alerts in your inbox..

×

10-Day Weather Forecast

Almanac

Astronomy

Apr. 29, 2017 Rise Set
Actual Time
Civil Twilight
Nautical Twilight
Astronomical Twilight
Moon
Length of Visible Light
Length of Day
Tomorrow will be .
, % of the Moon is Illuminated

Today's Extremes

State Highs State Lows

Community

WunderPhotos

WunderBlog® & News

Nearby

Air Quality

  Air Quality AQ Index Pollutant
Not available.

Snow Depth

Station Depth Elevation

Earthquake Activity

City Distance Mag. Time & Date
Minimum magnitude displayed is 2.5.

Coastal Water Temperatures

Place Temperature

Stations

Nearby Weather Stations

Station Location Temp. Windchill Dew Point Humidity Wind Precip. Elev Updated Type
                   

Watches & Warnings

Flash Flood Watch
Issued: 2:50 AM CDT Apr. 29, 2017 – National Weather Service

... Flash Flood Watch remains in effect until 11 am EDT /10 am
CDT/ this morning...

The Flash Flood Watch continues for

* portions of southern Indiana and north central Kentucky.

* Until 11 am EDT /10 am CDT/ this morning

* a stalled frontal boundary will continue to be the focus for
thunderstorms this morning. Some locations may receive
additional rainfall amounts of 1-1.5 inches on top of rain that
has already fallen.

Precautionary/preparedness actions...

A Flash Flood Watch means that conditions may develop that lead
to flash flooding. Flash flooding, especially overnight, is a
very dangerous situation.

You should monitor later forecasts and be prepared to take action
should flash flood warnings be issued.



Eer